sensor_id;sensor_type;location;lat;lon;timestamp;P1;durP1;ratioP1;P2;durP2;ratioP2
53293;SDS011;39181;53.440;5.644;2024-03-06T00:01:31;18.48;;;10.57;;
53293;SDS011;39181;53.440;5.644;2024-03-06T00:03:59;17.20;;;8.80;;
53293;SDS011;39181;53.440;5.644;2024-03-06T00:06:24;20.70;;;10.27;;
53293;SDS011;39181;53.440;5.644;2024-03-06T00:08:50;19.65;;;11.00;;
53293;SDS011;39181;53.440;5.644;2024-03-06T00:11:16;22.15;;;12.15;;
53293;SDS011;39181;53.440;5.644;2024-03-06T00:13:42;18.45;;;9.07;;
53293;SDS011;39181;53.440;5.644;2024-03-06T00:16:08;15.90;;;9.30;;
53293;SDS011;39181;53.440;5.644;2024-03-06T00:18:34;19.63;;;9.60;;
53293;SDS011;39181;53.440;5.644;2024-03-06T00:20:59;24.10;;;11.20;;
53293;SDS011;39181;53.440;5.644;2024-03-06T00:23:25;16.75;;;9.73;;
53293;SDS011;39181;53.440;5.644;2024-03-06T00:25:51;21.13;;;10.50;;
53293;SDS011;39181;53.440;5.644;2024-03-06T00:28:16;16.50;;;9.55;;
53293;SDS011;39181;53.440;5.644;2024-03-06T00:30:42;19.70;;;10.38;;
53293;SDS011;39181;53.440;5.644;2024-03-06T00:33:07;23.38;;;10.57;;
53293;SDS011;39181;53.440;5.644;2024-03-06T00:35:33;22.80;;;10.80;;
53293;SDS011;39181;53.440;5.644;2024-03-06T00:37:59;20.02;;;10.55;;
53293;SDS011;39181;53.440;5.644;2024-03-06T00:40:27;19.42;;;10.15;;
53293;SDS011;39181;53.440;5.644;2024-03-06T00:42:55;17.23;;;10.55;;
53293;SDS011;39181;53.440;5.644;2024-03-06T00:45:22;20.27;;;10.63;;
53293;SDS011;39181;53.440;5.644;2024-03-06T00:47:47;20.67;;;10.38;;
53293;SDS011;39181;53.440;5.644;2024-03-06T00:50:13;20.15;;;11.65;;
53293;SDS011;39181;53.440;5.644;2024-03-06T00:52:39;20.88;;;11.60;;
53293;SDS011;39181;53.440;5.644;2024-03-06T00:55:05;20.75;;;11.50;;
53293;SDS011;39181;53.440;5.644;2024-03-06T00:57:30;27.13;;;11.93;;
53293;SDS011;39181;53.440;5.644;2024-03-06T00:59:56;19.15;;;11.68;;
53293;SDS011;39181;53.440;5.644;2024-03-06T01:02:22;19.38;;;11.70;;
53293;SDS011;39181;53.440;5.644;2024-03-06T01:04:47;24.63;;;11.93;;
53293;SDS011;39181;53.440;5.644;2024-03-06T01:07:13;24.65;;;11.95;;
53293;SDS011;39181;53.440;5.644;2024-03-06T01:09:38;21.05;;;12.23;;
53293;SDS011;39181;53.440;5.644;2024-03-06T01:12:04;24.00;;;13.27;;
53293;SDS011;39181;53.440;5.644;2024-03-06T01:14:31;21.58;;;12.43;;
53293;SDS011;39181;53.440;5.644;2024-03-06T01:16:56;24.38;;;12.02;;
53293;SDS011;39181;53.440;5.644;2024-03-06T01:19:23;20.17;;;11.40;;
53293;SDS011;39181;53.440;5.644;2024-03-06T01:21:48;20.85;;;12.05;;
53293;SDS011;39181;53.440;5.644;2024-03-06T01:24:14;19.90;;;11.90;;
53293;SDS011;39181;53.440;5.644;2024-03-06T01:26:39;21.50;;;12.25;;
53293;SDS011;39181;53.440;5.644;2024-03-06T01:29:06;26.90;;;13.18;;
53293;SDS011;39181;53.440;5.644;2024-03-06T01:31:31;21.23;;;12.57;;
53293;SDS011;39181;53.440;5.644;2024-03-06T01:33:57;22.67;;;12.23;;
53293;SDS011;39181;53.440;5.644;2024-03-06T01:36:22;25.45;;;12.30;;
53293;SDS011;39181;53.440;5.644;2024-03-06T01:38:48;20.13;;;11.20;;
53293;SDS011;39181;53.440;5.644;2024-03-06T01:41:14;20.58;;;12.45;;
53293;SDS011;39181;53.440;5.644;2024-03-06T01:43:40;21.77;;;11.35;;
53293;SDS011;39181;53.440;5.644;2024-03-06T01:46:06;24.25;;;12.27;;
53293;SDS011;39181;53.440;5.644;2024-03-06T01:48:31;22.88;;;11.57;;
53293;SDS011;39181;53.440;5.644;2024-03-06T01:50:59;22.35;;;11.70;;
53293;SDS011;39181;53.440;5.644;2024-03-06T01:53:27;24.85;;;12.00;;
53293;SDS011;39181;53.440;5.644;2024-03-06T01:55:56;19.55;;;10.93;;
53293;SDS011;39181;53.440;5.644;2024-03-06T01:58:23;24.45;;;12.30;;
53293;SDS011;39181;53.440;5.644;2024-03-06T02:00:49;22.45;;;11.63;;
53293;SDS011;39181;53.440;5.644;2024-03-06T02:03:15;20.35;;;11.82;;
53293;SDS011;39181;53.440;5.644;2024-03-06T02:05:41;18.35;;;11.93;;
53293;SDS011;39181;53.440;5.644;2024-03-06T02:08:08;22.90;;;11.65;;
53293;SDS011;39181;53.440;5.644;2024-03-06T02:10:33;20.85;;;11.80;;
53293;SDS011;39181;53.440;5.644;2024-03-06T02:12:59;21.15;;;10.93;;
53293;SDS011;39181;53.440;5.644;2024-03-06T02:15:25;16.70;;;10.82;;
53293;SDS011;39181;53.440;5.644;2024-03-06T02:17:51;15.45;;;9.55;;
53293;SDS011;39181;53.440;5.644;2024-03-06T02:20:24;26.42;;;10.95;;
53293;SDS011;39181;53.440;5.644;2024-03-06T02:22:50;18.13;;;10.23;;
53293;SDS011;39181;53.440;5.644;2024-03-06T02:25:16;19.63;;;10.18;;
53293;SDS011;39181;53.440;5.644;2024-03-06T02:27:44;21.58;;;10.25;;
53293;SDS011;39181;53.440;5.644;2024-03-06T02:30:09;21.58;;;10.85;;
53293;SDS011;39181;53.440;5.644;2024-03-06T02:32:35;20.17;;;10.70;;
53293;SDS011;39181;53.440;5.644;2024-03-06T02:35:01;20.35;;;9.85;;
53293;SDS011;39181;53.440;5.644;2024-03-06T02:37:28;18.08;;;10.93;;
53293;SDS011;39181;53.440;5.644;2024-03-06T02:39:54;16.17;;;9.57;;
53293;SDS011;39181;53.440;5.644;2024-03-06T02:42:19;15.77;;;9.60;;
53293;SDS011;39181;53.440;5.644;2024-03-06T02:44:45;21.40;;;10.60;;
53293;SDS011;39181;53.440;5.644;2024-03-06T02:47:11;24.52;;;10.18;;
53293;SDS011;39181;53.440;5.644;2024-03-06T02:49:36;20.80;;;10.30;;
53293;SDS011;39181;53.440;5.644;2024-03-06T02:52:02;17.40;;;10.20;;
53293;SDS011;39181;53.440;5.644;2024-03-06T02:54:28;18.95;;;11.15;;
53293;SDS011;39181;53.440;5.644;2024-03-06T02:56:54;19.45;;;10.48;;
53293;SDS011;39181;53.440;5.644;2024-03-06T02:59:19;21.73;;;10.77;;
53293;SDS011;39181;53.440;5.644;2024-03-06T03:01:45;20.92;;;11.57;;
53293;SDS011;39181;53.440;5.644;2024-03-06T03:04:11;20.00;;;11.35;;
53293;SDS011;39181;53.440;5.644;2024-03-06T03:06:36;18.50;;;11.27;;
53293;SDS011;39181;53.440;5.644;2024-03-06T03:09:02;18.95;;;11.68;;
53293;SDS011;39181;53.440;5.644;2024-03-06T03:11:31;18.55;;;11.05;;
53293;SDS011;39181;53.440;5.644;2024-03-06T03:14:00;22.85;;;12.15;;
53293;SDS011;39181;53.440;5.644;2024-03-06T03:16:26;21.92;;;12.05;;
53293;SDS011;39181;53.440;5.644;2024-03-06T03:18:52;29.88;;;12.30;;
53293;SDS011;39181;53.440;5.644;2024-03-06T03:21:17;25.70;;;12.23;;
53293;SDS011;39181;53.440;5.644;2024-03-06T03:23:43;20.27;;;11.32;;
53293;SDS011;39181;53.440;5.644;2024-03-06T03:26:09;22.90;;;11.82;;
53293;SDS011;39181;53.440;5.644;2024-03-06T03:28:37;17.77;;;11.68;;
53293;SDS011;39181;53.440;5.644;2024-03-06T03:31:04;21.77;;;11.50;;
53293;SDS011;39181;53.440;5.644;2024-03-06T03:33:31;19.08;;;11.73;;
53293;SDS011;39181;53.440;5.644;2024-03-06T03:35:56;26.58;;;11.80;;
53293;SDS011;39181;53.440;5.644;2024-03-06T03:38:22;21.50;;;12.48;;
53293;SDS011;39181;53.440;5.644;2024-03-06T03:40:48;24.10;;;12.95;;
53293;SDS011;39181;53.440;5.644;2024-03-06T03:43:13;22.08;;;11.65;;
53293;SDS011;39181;53.440;5.644;2024-03-06T03:45:39;21.85;;;11.43;;
53293;SDS011;39181;53.440;5.644;2024-03-06T03:48:04;22.65;;;12.27;;
53293;SDS011;39181;53.440;5.644;2024-03-06T03:50:30;24.58;;;13.07;;
53293;SDS011;39181;53.440;5.644;2024-03-06T03:52:57;23.20;;;12.73;;
53293;SDS011;39181;53.440;5.644;2024-03-06T03:55:25;22.98;;;12.18;;
53293;SDS011;39181;53.440;5.644;2024-03-06T03:57:51;24.95;;;11.95;;
53293;SDS011;39181;53.440;5.644;2024-03-06T04:00:17;27.30;;;13.07;;
53293;SDS011;39181;53.440;5.644;2024-03-06T04:02:43;33.30;;;13.15;;
53293;SDS011;39181;53.440;5.644;2024-03-06T04:05:09;21.77;;;13.05;;
53293;SDS011;39181;53.440;5.644;2024-03-06T04:07:35;25.27;;;12.32;;
53293;SDS011;39181;53.440;5.644;2024-03-06T04:10:02;19.00;;;12.05;;
53293;SDS011;39181;53.440;5.644;2024-03-06T04:12:28;26.83;;;13.45;;
53293;SDS011;39181;53.440;5.644;2024-03-06T04:14:54;23.35;;;12.63;;
53293;SDS011;39181;53.440;5.644;2024-03-06T04:17:19;24.98;;;13.05;;
53293;SDS011;39181;53.440;5.644;2024-03-06T04:19:45;20.77;;;12.23;;
53293;SDS011;39181;53.440;5.644;2024-03-06T04:22:13;23.35;;;13.13;;
53293;SDS011;39181;53.440;5.644;2024-03-06T04:24:42;25.83;;;13.98;;
53293;SDS011;39181;53.440;5.644;2024-03-06T04:27:08;20.83;;;12.57;;
53293;SDS011;39181;53.440;5.644;2024-03-06T04:29:33;22.10;;;12.98;;
53293;SDS011;39181;53.440;5.644;2024-03-06T04:31:59;23.20;;;12.93;;
53293;SDS011;39181;53.440;5.644;2024-03-06T04:34:24;22.50;;;13.18;;
53293;SDS011;39181;53.440;5.644;2024-03-06T04:36:50;24.45;;;13.95;;
53293;SDS011;39181;53.440;5.644;2024-03-06T04:39:15;24.02;;;13.20;;
53293;SDS011;39181;53.440;5.644;2024-03-06T04:41:41;20.98;;;11.88;;
53293;SDS011;39181;53.440;5.644;2024-03-06T04:44:07;20.90;;;12.20;;
53293;SDS011;39181;53.440;5.644;2024-03-06T04:46:32;20.83;;;12.35;;
53293;SDS011;39181;53.440;5.644;2024-03-06T04:48:58;20.08;;;12.15;;
53293;SDS011;39181;53.440;5.644;2024-03-06T04:51:24;21.50;;;12.05;;
53293;SDS011;39181;53.440;5.644;2024-03-06T04:53:49;22.38;;;12.27;;
53293;SDS011;39181;53.440;5.644;2024-03-06T04:56:15;26.90;;;12.25;;
53293;SDS011;39181;53.440;5.644;2024-03-06T04:58:43;22.42;;;12.43;;
53293;SDS011;39181;53.440;5.644;2024-03-06T05:01:09;27.08;;;13.38;;
53293;SDS011;39181;53.440;5.644;2024-03-06T05:03:36;22.30;;;12.15;;
53293;SDS011;39181;53.440;5.644;2024-03-06T05:06:03;23.45;;;12.35;;
53293;SDS011;39181;53.440;5.644;2024-03-06T05:08:30;21.65;;;11.32;;
53293;SDS011;39181;53.440;5.644;2024-03-06T05:10:55;21.88;;;12.38;;
53293;SDS011;39181;53.440;5.644;2024-03-06T05:13:22;22.25;;;12.52;;
53293;SDS011;39181;53.440;5.644;2024-03-06T05:15:48;18.05;;;12.43;;
53293;SDS011;39181;53.440;5.644;2024-03-06T05:18:14;22.17;;;12.40;;
53293;SDS011;39181;53.440;5.644;2024-03-06T05:20:39;21.65;;;12.63;;
53293;SDS011;39181;53.440;5.644;2024-03-06T05:23:05;26.13;;;13.32;;
53293;SDS011;39181;53.440;5.644;2024-03-06T05:25:31;21.55;;;12.38;;
53293;SDS011;39181;53.440;5.644;2024-03-06T05:27:56;27.38;;;12.45;;
53293;SDS011;39181;53.440;5.644;2024-03-06T05:30:22;17.05;;;11.52;;
53293;SDS011;39181;53.440;5.644;2024-03-06T05:32:48;20.25;;;12.48;;
53293;SDS011;39181;53.440;5.644;2024-03-06T05:35:13;17.48;;;11.65;;
53293;SDS011;39181;53.440;5.644;2024-03-06T05:37:39;23.13;;;12.63;;
53293;SDS011;39181;53.440;5.644;2024-03-06T05:40:05;22.63;;;12.07;;
53293;SDS011;39181;53.440;5.644;2024-03-06T05:42:31;25.52;;;12.52;;
53293;SDS011;39181;53.440;5.644;2024-03-06T05:44:59;23.27;;;12.00;;
53293;SDS011;39181;53.440;5.644;2024-03-06T05:47:35;22.75;;;12.65;;
53293;SDS011;39181;53.440;5.644;2024-03-06T05:50:04;24.33;;;12.68;;
53293;SDS011;39181;53.440;5.644;2024-03-06T05:52:31;20.50;;;12.23;;
53293;SDS011;39181;53.440;5.644;2024-03-06T05:54:56;23.92;;;12.52;;
53293;SDS011;39181;53.440;5.644;2024-03-06T05:57:22;30.75;;;13.52;;
53293;SDS011;39181;53.440;5.644;2024-03-06T05:59:48;23.08;;;12.38;;
53293;SDS011;39181;53.440;5.644;2024-03-06T06:02:13;21.65;;;12.27;;
53293;SDS011;39181;53.440;5.644;2024-03-06T06:04:41;27.85;;;13.13;;
53293;SDS011;39181;53.440;5.644;2024-03-06T06:07:07;23.63;;;13.35;;
53293;SDS011;39181;53.440;5.644;2024-03-06T06:09:33;22.38;;;12.45;;
53293;SDS011;39181;53.440;5.644;2024-03-06T06:11:58;26.17;;;13.65;;
53293;SDS011;39181;53.440;5.644;2024-03-06T06:14:24;24.35;;;13.13;;
53293;SDS011;39181;53.440;5.644;2024-03-06T06:16:52;24.05;;;13.13;;
53293;SDS011;39181;53.440;5.644;2024-03-06T06:19:17;24.70;;;13.52;;
53293;SDS011;39181;53.440;5.644;2024-03-06T06:21:43;29.55;;;13.55;;
53293;SDS011;39181;53.440;5.644;2024-03-06T06:24:09;24.33;;;13.95;;
53293;SDS011;39181;53.440;5.644;2024-03-06T06:26:34;24.17;;;13.32;;
53293;SDS011;39181;53.440;5.644;2024-03-06T06:29:00;27.40;;;13.25;;
53293;SDS011;39181;53.440;5.644;2024-03-06T06:31:26;21.92;;;13.20;;
53293;SDS011;39181;53.440;5.644;2024-03-06T06:33:52;24.15;;;11.70;;
53293;SDS011;39181;53.440;5.644;2024-03-06T06:36:18;28.33;;;13.90;;
53293;SDS011;39181;53.440;5.644;2024-03-06T06:38:44;22.70;;;13.05;;
53293;SDS011;39181;53.440;5.644;2024-03-06T06:41:11;30.27;;;15.02;;
53293;SDS011;39181;53.440;5.644;2024-03-06T06:43:36;24.35;;;13.05;;
53293;SDS011;39181;53.440;5.644;2024-03-06T06:46:02;23.25;;;13.27;;
53293;SDS011;39181;53.440;5.644;2024-03-06T06:48:30;25.98;;;14.02;;
53293;SDS011;39181;53.440;5.644;2024-03-06T06:50:55;23.77;;;14.00;;
53293;SDS011;39181;53.440;5.644;2024-03-06T06:53:21;22.38;;;13.05;;
53293;SDS011;39181;53.440;5.644;2024-03-06T06:55:46;24.35;;;13.60;;
53293;SDS011;39181;53.440;5.644;2024-03-06T06:58:12;27.50;;;13.85;;
53293;SDS011;39181;53.440;5.644;2024-03-06T07:00:38;24.83;;;11.90;;
53293;SDS011;39181;53.440;5.644;2024-03-06T07:03:03;22.55;;;13.90;;
53293;SDS011;39181;53.440;5.644;2024-03-06T07:05:29;28.88;;;14.18;;
53293;SDS011;39181;53.440;5.644;2024-03-06T07:07:55;26.77;;;14.43;;
53293;SDS011;39181;53.440;5.644;2024-03-06T07:10:20;23.98;;;12.98;;
53293;SDS011;39181;53.440;5.644;2024-03-06T07:12:46;27.95;;;14.10;;
53293;SDS011;39181;53.440;5.644;2024-03-06T07:15:12;25.42;;;14.15;;
53293;SDS011;39181;53.440;5.644;2024-03-06T07:17:38;24.40;;;13.40;;
53293;SDS011;39181;53.440;5.644;2024-03-06T07:20:03;26.48;;;13.25;;
53293;SDS011;39181;53.440;5.644;2024-03-06T07:22:33;28.10;;;13.43;;
53293;SDS011;39181;53.440;5.644;2024-03-06T07:24:59;23.75;;;12.48;;
53293;SDS011;39181;53.440;5.644;2024-03-06T07:27:27;23.80;;;13.73;;
53293;SDS011;39181;53.440;5.644;2024-03-06T07:29:53;25.17;;;12.85;;
53293;SDS011;39181;53.440;5.644;2024-03-06T07:32:19;24.30;;;13.40;;
53293;SDS011;39181;53.440;5.644;2024-03-06T07:34:47;25.08;;;13.98;;
53293;SDS011;39181;53.440;5.644;2024-03-06T07:37:13;28.35;;;13.48;;
53293;SDS011;39181;53.440;5.644;2024-03-06T07:39:40;28.10;;;14.07;;
53293;SDS011;39181;53.440;5.644;2024-03-06T07:42:06;33.00;;;15.00;;
53293;SDS011;39181;53.440;5.644;2024-03-06T07:44:31;30.55;;;13.77;;
53293;SDS011;39181;53.440;5.644;2024-03-06T07:46:57;30.02;;;13.63;;
53293;SDS011;39181;53.440;5.644;2024-03-06T07:49:22;30.25;;;14.70;;
53293;SDS011;39181;53.440;5.644;2024-03-06T07:51:48;29.00;;;14.70;;
53293;SDS011;39181;53.440;5.644;2024-03-06T07:54:14;31.70;;;13.80;;
53293;SDS011;39181;53.440;5.644;2024-03-06T07:56:39;24.15;;;14.85;;
53293;SDS011;39181;53.440;5.644;2024-03-06T07:59:05;26.77;;;14.27;;
53293;SDS011;39181;53.440;5.644;2024-03-06T08:01:30;30.90;;;14.85;;
53293;SDS011;39181;53.440;5.644;2024-03-06T08:03:57;31.23;;;13.85;;
53293;SDS011;39181;53.440;5.644;2024-03-06T08:06:23;26.23;;;13.75;;
53293;SDS011;39181;53.440;5.644;2024-03-06T08:08:50;31.33;;;14.73;;
53293;SDS011;39181;53.440;5.644;2024-03-06T08:11:17;32.25;;;15.75;;
53293;SDS011;39181;53.440;5.644;2024-03-06T08:13:43;23.42;;;13.80;;
53293;SDS011;39181;53.440;5.644;2024-03-06T08:16:09;28.63;;;13.25;;
53293;SDS011;39181;53.440;5.644;2024-03-06T08:18:35;28.63;;;14.68;;
53293;SDS011;39181;53.440;5.644;2024-03-06T08:21:01;32.78;;;14.10;;
53293;SDS011;39181;53.440;5.644;2024-03-06T08:23:30;26.55;;;13.23;;
53293;SDS011;39181;53.440;5.644;2024-03-06T08:25:56;28.27;;;12.98;;
53293;SDS011;39181;53.440;5.644;2024-03-06T08:28:21;28.48;;;14.30;;
53293;SDS011;39181;53.440;5.644;2024-03-06T08:30:47;27.95;;;14.52;;
53293;SDS011;39181;53.440;5.644;2024-03-06T08:33:12;30.27;;;14.45;;
53293;SDS011;39181;53.440;5.644;2024-03-06T08:35:39;26.38;;;14.50;;
53293;SDS011;39181;53.440;5.644;2024-03-06T08:38:04;31.77;;;13.60;;
53293;SDS011;39181;53.440;5.644;2024-03-06T08:40:31;30.92;;;14.48;;
53293;SDS011;39181;53.440;5.644;2024-03-06T08:42:57;28.75;;;13.88;;
53293;SDS011;39181;53.440;5.644;2024-03-06T08:45:22;29.13;;;14.50;;
53293;SDS011;39181;53.440;5.644;2024-03-06T08:47:48;23.02;;;12.88;;
53293;SDS011;39181;53.440;5.644;2024-03-06T08:50:15;28.40;;;13.38;;
53293;SDS011;39181;53.440;5.644;2024-03-06T08:52:41;24.98;;;13.35;;
53293;SDS011;39181;53.440;5.644;2024-03-06T08:55:07;28.25;;;13.35;;
53293;SDS011;39181;53.440;5.644;2024-03-06T08:57:37;27.83;;;13.68;;
53293;SDS011;39181;53.440;5.644;2024-03-06T09:00:04;25.95;;;13.15;;
53293;SDS011;39181;53.440;5.644;2024-03-06T09:02:35;30.83;;;14.18;;
53293;SDS011;39181;53.440;5.644;2024-03-06T09:05:03;24.58;;;13.25;;
53293;SDS011;39181;53.440;5.644;2024-03-06T09:07:30;28.30;;;14.25;;
53293;SDS011;39181;53.440;5.644;2024-03-06T09:09:56;25.70;;;13.15;;
53293;SDS011;39181;53.440;5.644;2024-03-06T09:12:22;27.77;;;12.50;;
53293;SDS011;39181;53.440;5.644;2024-03-06T09:14:47;25.23;;;12.95;;
53293;SDS011;39181;53.440;5.644;2024-03-06T09:17:14;28.25;;;13.57;;
53293;SDS011;39181;53.440;5.644;2024-03-06T09:19:40;22.48;;;13.57;;
53293;SDS011;39181;53.440;5.644;2024-03-06T09:22:06;22.92;;;12.65;;
53293;SDS011;39181;53.440;5.644;2024-03-06T09:24:32;21.38;;;12.50;;
53293;SDS011;39181;53.440;5.644;2024-03-06T09:27:00;27.15;;;13.45;;
53293;SDS011;39181;53.440;5.644;2024-03-06T09:29:26;23.60;;;12.35;;
53293;SDS011;39181;53.440;5.644;2024-03-06T09:31:52;24.67;;;12.98;;
53293;SDS011;39181;53.440;5.644;2024-03-06T09:34:17;25.20;;;13.88;;
53293;SDS011;39181;53.440;5.644;2024-03-06T09:36:46;27.42;;;13.60;;
53293;SDS011;39181;53.440;5.644;2024-03-06T09:39:14;24.65;;;13.27;;
53293;SDS011;39181;53.440;5.644;2024-03-06T09:41:42;24.20;;;12.75;;
53293;SDS011;39181;53.440;5.644;2024-03-06T09:44:11;23.83;;;14.07;;
53293;SDS011;39181;53.440;5.644;2024-03-06T09:46:39;22.98;;;12.63;;
53293;SDS011;39181;53.440;5.644;2024-03-06T09:49:10;22.58;;;14.55;;
53293;SDS011;39181;53.440;5.644;2024-03-06T09:51:38;25.92;;;13.55;;
53293;SDS011;39181;53.440;5.644;2024-03-06T09:54:05;19.13;;;12.00;;
53293;SDS011;39181;53.440;5.644;2024-03-06T09:56:34;19.98;;;12.32;;
53293;SDS011;39181;53.440;5.644;2024-03-06T09:59:00;27.10;;;12.95;;
53293;SDS011;39181;53.440;5.644;2024-03-06T10:01:26;25.38;;;13.88;;
53293;SDS011;39181;53.440;5.644;2024-03-06T10:03:53;24.23;;;13.18;;
53293;SDS011;39181;53.440;5.644;2024-03-06T10:06:19;24.98;;;12.43;;
53293;SDS011;39181;53.440;5.644;2024-03-06T10:08:45;28.05;;;14.90;;
53293;SDS011;39181;53.440;5.644;2024-03-06T10:11:11;27.95;;;13.02;;
53293;SDS011;39181;53.440;5.644;2024-03-06T10:13:37;25.55;;;12.95;;
53293;SDS011;39181;53.440;5.644;2024-03-06T10:16:03;21.67;;;12.48;;
53293;SDS011;39181;53.440;5.644;2024-03-06T10:18:33;23.13;;;12.70;;
53293;SDS011;39181;53.440;5.644;2024-03-06T10:20:59;28.25;;;12.77;;
53293;SDS011;39181;53.440;5.644;2024-03-06T10:23:26;25.30;;;13.43;;
53293;SDS011;39181;53.440;5.644;2024-03-06T10:25:54;26.23;;;13.95;;
53293;SDS011;39181;53.440;5.644;2024-03-06T10:28:20;25.33;;;13.88;;
53293;SDS011;39181;53.440;5.644;2024-03-06T10:30:48;26.38;;;14.95;;
53293;SDS011;39181;53.440;5.644;2024-03-06T10:33:14;30.45;;;13.65;;
53293;SDS011;39181;53.440;5.644;2024-03-06T10:35:42;27.98;;;14.25;;
53293;SDS011;39181;53.440;5.644;2024-03-06T10:38:09;29.08;;;13.70;;
53293;SDS011;39181;53.440;5.644;2024-03-06T10:40:39;23.27;;;13.82;;
53293;SDS011;39181;53.440;5.644;2024-03-06T10:43:07;25.35;;;13.30;;
53293;SDS011;39181;53.440;5.644;2024-03-06T10:45:40;25.55;;;13.15;;
53293;SDS011;39181;53.440;5.644;2024-03-06T10:48:22;23.58;;;13.82;;
53293;SDS011;39181;53.440;5.644;2024-03-06T10:50:50;26.17;;;12.70;;
53293;SDS011;39181;53.440;5.644;2024-03-06T10:53:17;26.02;;;13.35;;
53293;SDS011;39181;53.440;5.644;2024-03-06T10:55:44;22.20;;;13.65;;
53293;SDS011;39181;53.440;5.644;2024-03-06T10:58:10;27.63;;;15.18;;
53293;SDS011;39181;53.440;5.644;2024-03-06T11:00:40;29.10;;;14.50;;
53293;SDS011;39181;53.440;5.644;2024-03-06T11:03:08;23.85;;;13.73;;
53293;SDS011;39181;53.440;5.644;2024-03-06T11:05:46;34.40;;;15.10;;
53293;SDS011;39181;53.440;5.644;2024-03-06T11:08:16;23.60;;;13.63;;
53293;SDS011;39181;53.440;5.644;2024-03-06T11:10:42;26.80;;;14.02;;
53293;SDS011;39181;53.440;5.644;2024-03-06T11:15:48;23.90;;;14.23;;
53293;SDS011;39181;53.440;5.644;2024-03-06T11:23:33;30.27;;;16.05;;
53293;SDS011;39181;53.440;5.644;2024-03-06T11:26:03;30.77;;;15.43;;
53293;SDS011;39181;53.440;5.644;2024-03-06T11:28:33;36.47;;;15.88;;
53293;SDS011;39181;53.440;5.644;2024-03-06T11:36:24;31.90;;;16.42;;
53293;SDS011;39181;53.440;5.644;2024-03-06T11:39:03;40.35;;;17.75;;
53293;SDS011;39181;53.440;5.644;2024-03-06T11:44:07;31.00;;;16.30;;
53293;SDS011;39181;53.440;5.644;2024-03-06T11:46:43;34.80;;;14.82;;
53293;SDS011;39181;53.440;5.644;2024-03-06T11:49:22;32.45;;;16.23;;
53293;SDS011;39181;53.440;5.644;2024-03-06T11:51:53;28.73;;;15.35;;
53293;SDS011;39181;53.440;5.644;2024-03-06T11:54:23;29.77;;;15.63;;
53293;SDS011;39181;53.440;5.644;2024-03-06T11:56:51;33.42;;;16.35;;
53293;SDS011;39181;53.440;5.644;2024-03-06T11:59:24;30.60;;;15.05;;
53293;SDS011;39181;53.440;5.644;2024-03-06T12:01:51;31.35;;;16.95;;
53293;SDS011;39181;53.440;5.644;2024-03-06T12:04:18;31.88;;;15.57;;
53293;SDS011;39181;53.440;5.644;2024-03-06T12:06:45;34.60;;;16.75;;
53293;SDS011;39181;53.440;5.644;2024-03-06T12:09:10;28.52;;;15.60;;
53293;SDS011;39181;53.440;5.644;2024-03-06T12:11:36;29.67;;;16.52;;
53293;SDS011;39181;53.440;5.644;2024-03-06T12:14:02;28.45;;;16.35;;
53293;SDS011;39181;53.440;5.644;2024-03-06T12:16:28;31.60;;;16.02;;
53293;SDS011;39181;53.440;5.644;2024-03-06T12:18:54;30.95;;;16.00;;
53293;SDS011;39181;53.440;5.644;2024-03-06T12:21:22;33.70;;;16.55;;
53293;SDS011;39181;53.440;5.644;2024-03-06T12:24:01;30.33;;;16.25;;
53293;SDS011;39181;53.440;5.644;2024-03-06T12:26:30;32.40;;;17.25;;
53293;SDS011;39181;53.440;5.644;2024-03-06T12:29:08;28.38;;;14.90;;
53293;SDS011;39181;53.440;5.644;2024-03-06T12:31:36;31.20;;;14.63;;
53293;SDS011;39181;53.440;5.644;2024-03-06T12:34:06;37.85;;;18.00;;
53293;SDS011;39181;53.440;5.644;2024-03-06T12:36:32;34.08;;;17.13;;
53293;SDS011;39181;53.440;5.644;2024-03-06T12:38:58;36.05;;;18.05;;
53293;SDS011;39181;53.440;5.644;2024-03-06T12:41:25;35.90;;;18.25;;
53293;SDS011;39181;53.440;5.644;2024-03-06T12:43:51;33.85;;;17.30;;
53293;SDS011;39181;53.440;5.644;2024-03-06T12:46:17;32.00;;;15.90;;
53293;SDS011;39181;53.440;5.644;2024-03-06T12:48:44;33.28;;;17.20;;
53293;SDS011;39181;53.440;5.644;2024-03-06T12:51:10;37.65;;;17.30;;
53293;SDS011;39181;53.440;5.644;2024-03-06T12:53:36;42.13;;;19.33;;
53293;SDS011;39181;53.440;5.644;2024-03-06T12:56:02;36.58;;;19.75;;
53293;SDS011;39181;53.440;5.644;2024-03-06T12:58:28;39.08;;;20.00;;
53293;SDS011;39181;53.440;5.644;2024-03-06T13:00:56;35.65;;;18.73;;
53293;SDS011;39181;53.440;5.644;2024-03-06T13:03:22;35.28;;;17.80;;
53293;SDS011;39181;53.440;5.644;2024-03-06T13:05:48;33.20;;;18.15;;
53293;SDS011;39181;53.440;5.644;2024-03-06T13:08:14;36.15;;;18.50;;
53293;SDS011;39181;53.440;5.644;2024-03-06T13:10:40;39.75;;;20.38;;
53293;SDS011;39181;53.440;5.644;2024-03-06T13:13:06;36.97;;;19.27;;
53293;SDS011;39181;53.440;5.644;2024-03-06T13:15:32;34.38;;;18.30;;
53293;SDS011;39181;53.440;5.644;2024-03-06T13:18:01;38.63;;;19.73;;
53293;SDS011;39181;53.440;5.644;2024-03-06T13:20:28;37.05;;;20.02;;
53293;SDS011;39181;53.440;5.644;2024-03-06T13:22:55;35.97;;;18.55;;
53293;SDS011;39181;53.440;5.644;2024-03-06T13:25:20;35.22;;;18.25;;
53293;SDS011;39181;53.440;5.644;2024-03-06T13:27:46;36.83;;;18.42;;
53293;SDS011;39181;53.440;5.644;2024-03-06T13:30:12;36.92;;;18.70;;
53293;SDS011;39181;53.440;5.644;2024-03-06T13:32:38;34.80;;;19.80;;
53293;SDS011;39181;53.440;5.644;2024-03-06T13:35:04;37.05;;;18.58;;
53293;SDS011;39181;53.440;5.644;2024-03-06T13:37:37;36.17;;;19.17;;
53293;SDS011;39181;53.440;5.644;2024-03-06T13:40:03;34.38;;;17.65;;
53293;SDS011;39181;53.440;5.644;2024-03-06T13:42:32;36.47;;;18.88;;
53293;SDS011;39181;53.440;5.644;2024-03-06T13:44:58;33.67;;;18.90;;
53293;SDS011;39181;53.440;5.644;2024-03-06T13:47:23;37.80;;;19.45;;
53293;SDS011;39181;53.440;5.644;2024-03-06T13:49:49;35.53;;;19.25;;
53293;SDS011;39181;53.440;5.644;2024-03-06T13:52:15;37.13;;;18.60;;
53293;SDS011;39181;53.440;5.644;2024-03-06T13:54:44;33.92;;;19.02;;
53293;SDS011;39181;53.440;5.644;2024-03-06T13:57:11;30.50;;;18.15;;
53293;SDS011;39181;53.440;5.644;2024-03-06T13:59:37;33.20;;;19.42;;
53293;SDS011;39181;53.440;5.644;2024-03-06T14:02:02;35.25;;;19.27;;
53293;SDS011;39181;53.440;5.644;2024-03-06T14:04:28;35.65;;;20.70;;
53293;SDS011;39181;53.440;5.644;2024-03-06T14:06:55;40.28;;;18.70;;
53293;SDS011;39181;53.440;5.644;2024-03-06T14:09:22;36.13;;;18.90;;
53293;SDS011;39181;53.440;5.644;2024-03-06T14:11:49;37.58;;;19.83;;
53293;SDS011;39181;53.440;5.644;2024-03-06T14:14:15;36.83;;;18.70;;
53293;SDS011;39181;53.440;5.644;2024-03-06T14:16:41;33.85;;;20.08;;
53293;SDS011;39181;53.440;5.644;2024-03-06T14:19:07;34.28;;;20.00;;
53293;SDS011;39181;53.440;5.644;2024-03-06T14:21:33;38.90;;;20.10;;
53293;SDS011;39181;53.440;5.644;2024-03-06T14:24:00;35.47;;;18.77;;
53293;SDS011;39181;53.440;5.644;2024-03-06T14:26:30;35.28;;;19.75;;
53293;SDS011;39181;53.440;5.644;2024-03-06T14:28:56;38.92;;;19.35;;
53293;SDS011;39181;53.440;5.644;2024-03-06T14:31:22;33.60;;;19.30;;
53293;SDS011;39181;53.440;5.644;2024-03-06T14:33:48;36.65;;;20.27;;